createdAt,value
2017-09-02T00:00:25.773Z,94.74
2017-09-02T00:01:25.751Z,94.74
2017-09-02T00:02:25.727Z,94.84
2017-09-02T00:03:25.704Z,94.84
2017-09-02T00:04:25.702Z,94.84
2017-09-02T00:05:25.666Z,94.93
2017-09-02T00:06:25.639Z,94.65
2017-09-02T00:07:25.620Z,94.93
2017-09-02T00:08:25.597Z,94.84
2017-09-02T00:09:25.575Z,94.84
2017-09-02T00:10:25.557Z,94.84
2017-09-02T00:11:25.543Z,94.84
2017-09-02T00:12:25.512Z,95.22
2017-09-02T00:13:25.487Z,95.12
2017-09-02T00:14:25.473Z,95.22
2017-09-02T00:15:25.444Z,94.84
2017-09-02T00:16:25.423Z,95.12
2017-09-02T00:17:25.401Z,94.84
2017-09-02T00:18:25.078Z,94.93
2017-09-02T00:19:25.361Z,94.55
2017-09-02T00:20:25.340Z,94.89
2017-09-02T00:21:25.316Z,94.65
2017-09-02T00:22:25.295Z,94.93
2017-09-02T00:23:25.271Z,94.84
2017-09-02T00:24:25.249Z,94.84
2017-09-02T00:25:25.232Z,95.41
2017-09-02T00:26:25.203Z,95.7
2017-09-02T00:27:25.187Z,95.79
2017-09-02T00:28:25.162Z,95.7
2017-09-02T00:29:25.143Z,94.84
2017-09-02T00:30:25.123Z,95.32
2017-09-02T00:31:25.100Z,95.36
2017-09-02T00:32:25.075Z,95.32
2017-09-02T00:33:25.054Z,95.7
2017-09-02T00:34:25.035Z,95.41
2017-09-02T00:35:25.015Z,94.93
2017-09-02T00:36:24.992Z,95.03
2017-09-02T00:37:24.972Z,94.84
2017-09-02T00:38:24.635Z,94.93
2017-09-02T00:39:24.921Z,95.79
2017-09-02T00:40:24.902Z,95.51
2017-09-02T00:41:24.880Z,94.98
2017-09-02T00:42:24.863Z,94.84
2017-09-02T00:43:24.888Z,95.12
2017-09-02T00:44:24.822Z,95.41
2017-09-02T00:45:24.795Z,95.61
2017-09-02T00:46:24.770Z,95.17
2017-09-02T00:47:24.757Z,95.51
2017-09-02T00:48:24.738Z,95.61
2017-09-02T00:49:24.706Z,95.27
2017-09-02T00:50:24.905Z,95.56
2017-09-02T00:51:24.714Z,95.56
2017-09-02T00:52:24.641Z,95.56
2017-09-02T00:53:24.620Z,95.36
2017-09-02T00:54:24.602Z,95.17
2017-09-02T00:55:24.583Z,95.27
2017-09-02T00:56:24.560Z,94.98
2017-09-02T00:57:24.535Z,95.36
2017-09-02T00:58:24.511Z,95.65
2017-09-02T00:59:24.490Z,95.17
2017-09-02T01:00:24.475Z,95.65
2017-09-02T01:01:24.450Z,95.27
2017-09-02T01:02:24.424Z,95.56
2017-09-02T01:03:24.409Z,95.36
2017-09-02T01:04:24.382Z,95.61
2017-09-02T01:05:24.370Z,95.56
2017-09-02T01:06:24.338Z,95.56
2017-09-02T01:07:24.320Z,95.46
2017-09-02T01:08:23.987Z,95.56
2017-09-02T01:09:24.274Z,95.46
2017-09-02T01:10:24.261Z,95.56
2017-09-02T01:11:24.229Z,95.56
2017-09-02T01:12:24.215Z,95.65
2017-09-02T01:13:24.183Z,96.22
2017-09-02T01:14:24.173Z,96.22
2017-09-02T01:15:24.354Z,95.84
2017-09-02T01:16:24.129Z,95.94
2017-09-02T01:17:24.101Z,96.03
2017-09-02T01:18:24.078Z,95.84
2017-09-02T01:19:24.062Z,95.94
2017-09-02T01:20:24.039Z,95.56
2017-09-02T01:21:24.010Z,95.65
2017-09-02T01:22:23.995Z,95.65
2017-09-02T01:23:23.969Z,95.75
2017-09-02T01:24:23.948Z,95.56
2017-09-02T01:25:23.618Z,95.56
2017-09-02T01:26:23.902Z,95.75
2017-09-02T01:27:23.880Z,95.65
2017-09-02T01:28:23.859Z,95.75
2017-09-02T01:29:23.840Z,95.75
2017-09-02T01:30:23.817Z,95.84
2017-09-02T01:31:23.800Z,95.94
2017-09-02T01:32:23.827Z,95.75
2017-09-02T01:33:23.440Z,95.94
2017-09-02T01:34:23.728Z,95.94
2017-09-02T01:35:23.708Z,95.65
2017-09-02T01:36:23.686Z,96.03
2017-09-02T01:37:23.664Z,95.79
2017-09-02T01:38:23.645Z,95.84
2017-09-02T01:39:23.619Z,95.94
2017-09-02T01:40:23.598Z,95.84
2017-09-02T01:41:23.577Z,95.75
2017-09-02T01:42:23.556Z,95.79
2017-09-02T01:43:23.533Z,95.94
2017-09-02T01:44:23.511Z,95.94
2017-09-02T01:45:23.181Z,95.75
2017-09-02T01:46:23.467Z,95.75
2017-09-02T01:47:23.444Z,95.84
2017-09-02T01:48:23.427Z,95.94
2017-09-02T01:49:23.405Z,95.94
2017-09-02T01:50:23.382Z,95.94
2017-09-02T01:51:23.363Z,95.94
2017-09-02T01:52:23.342Z,96.03
2017-09-02T01:53:23.322Z,95.94
2017-09-02T01:54:23.342Z,96.22
2017-09-02T01:55:23.272Z,96.61
2017-09-02T01:56:23.251Z,96.7
2017-09-02T01:57:23.228Z,95.94
2017-09-02T01:58:22.902Z,96.32
2017-09-02T01:59:23.186Z,96.03
2017-09-02T02:00:23.170Z,96.61
2017-09-02T02:01:23.141Z,96.32
2017-09-02T02:02:23.124Z,96.32
2017-09-02T02:03:23.103Z,95.94
2017-09-02T02:04:23.075Z,96.7
2017-09-02T02:05:23.055Z,95.94
2017-09-02T02:06:23.031Z,96.32
2017-09-02T02:07:22.709Z,96.32
2017-09-02T02:08:22.992Z,96.32
2017-09-02T02:09:22.662Z,96.03
2017-09-02T02:10:22.994Z,95.94
2017-09-02T02:11:22.930Z,96.03
2017-09-02T02:12:22.898Z,96.13
2017-09-02T02:13:22.878Z,96.7
2017-09-02T02:14:22.549Z,96.8
2017-09-02T02:15:22.528Z,96.42
2017-09-02T02:16:22.812Z,96.51
2017-09-02T02:17:22.791Z,96.51
2017-09-02T02:18:22.764Z,96.51
2017-09-02T02:19:22.748Z,96.51
2017-09-02T02:20:22.418Z,96.61
2017-09-02T02:21:22.704Z,96.51
2017-09-02T02:22:22.679Z,96.61
2017-09-02T02:23:22.659Z,96.51
2017-09-02T02:24:22.636Z,96.51
2017-09-02T02:25:22.820Z,96.51
2017-09-02T02:26:22.599Z,96.42
2017-09-02T02:27:22.576Z,96.61
2017-09-02T02:28:22.248Z,96.42
2017-09-02T02:29:22.525Z,96.42
2017-09-02T02:30:22.566Z,96.22
2017-09-02T02:31:22.493Z,96.32
2017-09-02T02:32:22.466Z,96.32
2017-09-02T02:33:22.445Z,96.42
2017-09-02T02:34:22.422Z,96.42
2017-09-02T02:35:22.460Z,96.13
2017-09-02T02:36:22.381Z,96.42
2017-09-02T02:37:22.355Z,96.42
2017-09-02T02:38:22.340Z,96.42
2017-09-02T02:39:22.315Z,96.42
2017-09-02T02:40:22.295Z,96.32
2017-09-02T02:41:22.273Z,96.7
2017-09-02T02:42:22.251Z,96.42
2017-09-02T02:43:22.222Z,96.61
2017-09-02T02:44:21.895Z,96.7
2017-09-02T02:45:22.186Z,96.7
2017-09-02T02:46:21.868Z,96.61
2017-09-02T02:47:22.139Z,96.7
2017-09-02T02:48:22.166Z,96.7
2017-09-02T02:49:22.097Z,96.7
2017-09-02T02:50:22.078Z,96.7
2017-09-02T02:51:22.059Z,96.61
2017-09-02T02:52:22.033Z,96.32
2017-09-02T02:53:22.010Z,96.51
2017-09-02T02:54:22.037Z,96.7
2017-09-02T02:55:21.961Z,96.42
2017-09-02T02:56:21.941Z,96.51
2017-09-02T02:57:21.927Z,96.13
2017-09-02T02:58:21.897Z,96.51
2017-09-02T02:59:21.876Z,96.51
2017-09-02T03:00:21.858Z,96.51
2017-09-02T03:01:21.832Z,96.89
2017-09-02T03:02:21.813Z,96.7
2017-09-02T03:03:21.791Z,96.7
2017-09-02T03:04:21.769Z,96.51
2017-09-02T03:05:21.745Z,96.7
2017-09-02T03:06:21.728Z,96.61
2017-09-02T03:07:21.705Z,96.32
2017-09-02T03:08:21.682Z,96.22
2017-09-02T03:09:21.662Z,96.61
2017-09-02T03:10:21.642Z,96.7
2017-09-02T03:11:21.613Z,96.51
2017-09-02T03:12:21.591Z,96.89
2017-09-02T03:13:21.262Z,96.94
2017-09-02T03:14:21.587Z,96.66
2017-09-02T03:15:21.531Z,96.61
2017-09-02T03:16:21.508Z,96.7
2017-09-02T03:17:21.488Z,96.84
2017-09-02T03:18:21.469Z,96.61
2017-09-02T03:19:21.440Z,96.99
2017-09-02T03:20:21.424Z,96.99
2017-09-02T03:21:21.088Z,96.7
2017-09-02T03:22:21.373Z,96.7
2017-09-02T03:23:21.358Z,96.75
2017-09-02T03:24:21.338Z,96.61
2017-09-02T03:25:21.314Z,96.99
2017-09-02T03:26:21.316Z,96.84
2017-09-02T03:27:21.263Z,96.61
2017-09-02T03:28:21.252Z,96.56
2017-09-02T03:29:21.222Z,96.61
2017-09-02T03:30:21.254Z,97.08
2017-09-02T03:31:21.181Z,96.56
2017-09-02T03:32:21.158Z,96.56
2017-09-02T03:33:21.133Z,96.94
2017-09-02T03:34:21.112Z,96.84
2017-09-02T03:35:21.098Z,97.03
2017-09-02T03:36:21.118Z,96.84
2017-09-02T03:37:21.059Z,96.46
2017-09-02T03:38:21.025Z,96.84
2017-09-02T03:39:21.001Z,97.03
2017-09-02T03:40:20.981Z,96.89
2017-09-02T03:41:20.964Z,96.56
2017-09-02T03:42:20.631Z,96.75
2017-09-02T03:43:20.912Z,96.94
2017-09-02T03:44:20.893Z,97.23
2017-09-02T03:45:20.871Z,97.32
2017-09-02T03:46:20.850Z,97.23
2017-09-02T03:47:20.831Z,97.23
2017-09-02T03:48:20.807Z,96.84
2017-09-02T03:49:20.782Z,97.13
2017-09-02T03:50:20.763Z,97.13
2017-09-02T03:51:20.439Z,97.03
2017-09-02T03:52:20.718Z,96.75
2017-09-02T03:53:20.697Z,97.42
2017-09-02T03:54:20.676Z,97.52
2017-09-02T03:55:20.662Z,97.13
2017-09-02T03:56:20.629Z,97.13
2017-09-02T03:57:20.614Z,97.03
2017-09-02T03:58:20.590Z,96.94
2017-09-02T03:59:20.568Z,97.52
2017-09-02T04:00:20.542Z,96.66
2017-09-02T04:01:20.521Z,97.03
2017-09-02T04:02:20.500Z,97.13
2017-09-02T04:03:20.475Z,96.84
2017-09-02T04:04:20.461Z,97.03
2017-09-02T04:05:20.483Z,97.71
2017-09-02T04:06:20.409Z,97.42
2017-09-02T04:07:20.388Z,96.94
2017-09-02T04:08:20.372Z,96.75
2017-09-02T04:09:20.341Z,97.03
2017-09-02T04:10:20.374Z,97.23
2017-09-02T04:11:20.307Z,97.71
2017-09-02T04:12:20.284Z,97.32
2017-09-02T04:13:20.267Z,97.32
2017-09-02T04:14:20.238Z,97.42
2017-09-02T04:15:20.224Z,97.42
2017-09-02T04:16:20.191Z,97.32
2017-09-02T04:17:20.168Z,97.42
2017-09-02T04:18:20.153Z,97.42
2017-09-02T04:19:20.121Z,97.03
2017-09-02T04:20:20.154Z,97.23
2017-09-02T04:21:20.087Z,97.32
2017-09-02T04:22:20.063Z,97.32
2017-09-02T04:23:20.037Z,97.42
2017-09-02T04:24:19.711Z,97.52
2017-09-02T04:25:20.001Z,97.52
2017-09-02T04:26:19.968Z,97.13
2017-09-02T04:27:19.952Z,97.23
2017-09-02T04:28:19.930Z,97.52
2017-09-02T04:29:19.909Z,97.8
2017-09-02T04:30:19.882Z,97.89
2017-09-02T04:31:19.863Z,97.89
2017-09-02T04:32:19.842Z,98.08
2017-09-02T04:33:19.817Z,97.71
2017-09-02T04:34:19.801Z,97.52
2017-09-02T04:35:19.772Z,97.61
2017-09-02T04:36:19.752Z,97.8
2017-09-02T04:37:19.729Z,97.89
2017-09-02T04:38:19.713Z,97.61
2017-09-02T04:39:19.686Z,97.61
2017-09-02T04:40:19.662Z,97.8
2017-09-02T04:41:19.641Z,97.75
2017-09-02T04:42:19.625Z,97.85
2017-09-02T04:43:19.644Z,97.85
2017-09-02T04:44:19.577Z,97.85
2017-09-02T04:45:19.550Z,97.94
2017-09-02T04:46:19.217Z,97.94
2017-09-02T04:47:19.511Z,98.13
2017-09-02T04:48:19.488Z,98.13
2017-09-02T04:49:19.467Z,97.94
2017-09-02T04:50:19.442Z,98.23
2017-09-02T04:51:19.416Z,97.94
2017-09-02T04:52:19.404Z,97.85
2017-09-02T04:53:19.372Z,97.94
2017-09-02T04:54:19.353Z,97.94
2017-09-02T04:55:19.333Z,97.94
2017-09-02T04:56:19.313Z,97.85
2017-09-02T04:57:19.590Z,98.61
2017-09-02T04:58:19.264Z,98.32
2017-09-02T04:59:19.244Z,98.23
2017-09-02T05:00:19.215Z,98.37
2017-09-02T05:01:19.198Z,98.57
2017-09-02T05:02:19.175Z,97.85
2017-09-02T05:03:18.898Z,98.28
2017-09-02T05:04:18.825Z,97.89
2017-09-02T05:05:19.114Z,97.89
2017-09-02T05:06:18.780Z,97.89
2017-09-02T05:07:18.755Z,98.18
2017-09-02T05:08:19.045Z,97.61
2017-09-02T05:09:19.023Z,98.18
2017-09-02T05:10:18.998Z,98.08
2017-09-02T05:11:18.978Z,97.61
2017-09-02T05:12:18.953Z,97.99
2017-09-02T05:13:18.934Z,98.28
2017-09-02T05:14:18.909Z,98.08
2017-09-02T05:15:18.890Z,97.89
2017-09-02T05:16:18.864Z,97.89
2017-09-02T05:17:18.843Z,98.18
2017-09-02T05:18:18.820Z,97.71
2017-09-02T05:19:18.805Z,97.71
2017-09-02T05:20:18.777Z,97.75
2017-09-02T05:21:18.756Z,97.94
2017-09-02T05:22:18.734Z,98.13
2017-09-02T05:23:18.713Z,97.75
2017-09-02T05:24:18.688Z,97.28
2017-09-02T05:25:18.669Z,97.23
2017-09-02T05:26:18.646Z,97.37
2017-09-02T05:27:18.625Z,97.47
2017-09-02T05:28:18.603Z,97.37
2017-09-02T05:29:18.580Z,97.37
2017-09-02T05:30:18.557Z,97.75
2017-09-02T05:31:18.543Z,97.28
2017-09-02T05:32:18.517Z,96.8
2017-09-02T05:33:18.493Z,97.08
2017-09-02T05:34:18.478Z,97.18
2017-09-02T05:35:18.449Z,97.08
2017-09-02T05:36:18.430Z,96.8
2017-09-02T05:37:18.408Z,97.18
2017-09-02T05:38:18.390Z,96.99
2017-09-02T05:39:18.377Z,97.37
2017-09-02T05:40:18.343Z,96.8
2017-09-02T05:41:18.324Z,96.51
2017-09-02T05:42:18.291Z,97.28
2017-09-02T05:43:18.273Z,96.89
2017-09-02T05:44:18.252Z,96.8
2017-09-02T05:45:18.237Z,96.61
2017-09-02T05:46:18.209Z,96.61
2017-09-02T05:47:18.188Z,96.7
2017-09-02T05:48:18.163Z,96.8
2017-09-02T05:49:18.156Z,96.7
2017-09-02T05:50:18.125Z,96.66
2017-09-02T05:51:18.153Z,96.61
2017-09-02T05:52:18.076Z,96.47
2017-09-02T05:53:18.067Z,96.56
2017-09-02T05:54:18.035Z,96.56
2017-09-02T05:55:18.030Z,96.66
2017-09-02T05:56:17.990Z,96.66
2017-09-02T05:57:17.970Z,96.47
2017-09-02T05:58:17.950Z,95.79
2017-09-02T05:59:17.934Z,95.84
2017-09-02T06:00:17.912Z,96.13
2017-09-02T06:01:17.884Z,95.61
2017-09-02T06:02:17.866Z,95.61
2017-09-02T06:03:17.536Z,95.7
2017-09-02T06:04:17.824Z,95.17
2017-09-02T06:05:17.802Z,94.6
2017-09-02T06:06:17.782Z,94.12
2017-09-02T06:07:17.454Z,94.12
2017-09-02T06:08:17.741Z,94.35
2017-09-02T06:09:17.719Z,94.07
2017-09-02T06:10:17.708Z,93.88
2017-09-02T06:11:17.677Z,93.54
2017-09-02T06:12:17.660Z,93.06
2017-09-02T06:13:17.636Z,92.82
2017-09-02T06:14:17.621Z,92.54
2017-09-02T06:15:17.602Z,91.86
2017-09-02T06:16:17.579Z,91.96
2017-09-02T06:17:17.557Z,91.14
2017-09-02T06:18:17.859Z,91.24
2017-09-02T06:19:17.527Z,90.56
2017-09-02T06:20:17.498Z,90.75
2017-09-02T06:21:17.479Z,90.13
2017-09-02T06:22:17.201Z,89.75
2017-09-02T06:23:17.439Z,89.4
2017-09-02T06:24:17.421Z,89.02
2017-09-02T06:25:17.407Z,88.35
2017-09-02T06:26:17.394Z,88.1
2017-09-02T06:27:17.374Z,87.82
2017-09-02T06:28:17.344Z,87.24
2017-09-02T06:29:17.323Z,86.38
2017-09-02T06:30:17.311Z,86.28
2017-09-02T06:31:17.296Z,86.13
2017-09-02T06:32:17.266Z,85.36
2017-09-02T06:33:17.303Z,85.17
2017-09-02T06:34:17.231Z,84.59
2017-09-02T06:35:17.212Z,84.4
2017-09-02T06:36:17.199Z,84.88
2017-09-02T06:37:17.189Z,84.78
2017-09-02T06:38:17.162Z,84.3
2017-09-02T06:39:17.141Z,84.06
2017-09-02T06:40:17.124Z,83.48
2017-09-02T06:41:16.797Z,83.29
2017-09-02T06:42:17.090Z,83.77
2017-09-02T06:43:17.070Z,83
2017-09-02T06:44:17.052Z,82.71
2017-09-02T06:45:17.034Z,81.94
2017-09-02T06:46:17.020Z,82.23
2017-09-02T06:47:16.999Z,82.23
2017-09-02T06:48:16.990Z,81.94
2017-09-02T06:49:16.972Z,82.17
2017-09-02T06:50:16.972Z,81.16
2017-09-02T06:51:16.934Z,80.96
2017-09-02T06:52:16.909Z,80
2017-09-02T06:53:16.891Z,80.33
2017-09-02T06:54:16.875Z,78.79
2017-09-02T06:55:16.865Z,77.53
2017-09-02T06:56:16.842Z,77.44
2017-09-02T06:57:16.834Z,76.96
2017-09-02T06:58:16.814Z,77.15
2017-09-02T06:59:16.798Z,77.25
2017-09-02T07:00:16.471Z,77.73
2017-09-02T07:01:16.762Z,77.28
2017-09-02T07:02:16.744Z,76.51
2017-09-02T07:03:16.419Z,76.13
2017-09-02T07:04:16.713Z,75.01
2017-09-02T07:05:16.702Z,74.05
2017-09-02T07:06:16.675Z,73.27
2017-09-02T07:07:16.663Z,74.14
2017-09-02T07:08:16.644Z,73.95
2017-09-02T07:09:16.630Z,71.86
2017-09-02T07:10:16.617Z,71
2017-09-02T07:11:16.604Z,71.19
2017-09-02T07:12:16.585Z,69.84
2017-09-02T07:13:16.574Z,69.26
2017-09-02T07:14:16.557Z,68.23
2017-09-02T07:15:16.539Z,68.59
2017-09-02T07:16:16.530Z,70.03
2017-09-02T07:17:16.529Z,69.64
2017-09-02T07:18:16.496Z,69.16
2017-09-02T07:19:16.480Z,69.26
2017-09-02T07:20:16.467Z,67.94
2017-09-02T07:21:16.446Z,67.94
2017-09-02T07:22:16.431Z,66.88
2017-09-02T07:23:16.110Z,67.36
2017-09-02T07:24:16.418Z,66.4
2017-09-02T07:25:16.389Z,66.4
2017-09-02T07:26:16.378Z,66.3
2017-09-02T07:27:16.058Z,66.59
2017-09-02T07:28:16.351Z,64.4
2017-09-02T07:29:16.327Z,64.21
2017-09-02T07:30:16.313Z,64.5
2017-09-02T07:31:15.992Z,66.4
2017-09-02T07:32:16.283Z,66.2
2017-09-02T07:33:16.319Z,66.4
2017-09-02T07:34:16.260Z,66.05
2017-09-02T07:35:16.257Z,65.66
2017-09-02T07:36:16.234Z,66.14
2017-09-02T07:37:16.225Z,64.79
2017-09-02T07:38:16.210Z,64.92
2017-09-02T07:39:16.186Z,62.89
2017-09-02T07:40:16.175Z,62.21
2017-09-02T07:41:16.163Z,61.27
2017-09-02T07:42:16.148Z,59.95
2017-09-02T07:43:16.133Z,59.47
2017-09-02T07:44:16.120Z,58.98
2017-09-02T07:45:16.107Z,57.15
2017-09-02T07:46:16.091Z,58.02
2017-09-02T07:47:16.083Z,58.6
2017-09-02T07:48:16.066Z,57.56
2017-09-02T07:49:16.058Z,55.92
2017-09-02T07:50:16.042Z,56.4
2017-09-02T07:51:15.719Z,55.53
2017-09-02T07:52:16.078Z,55.92
2017-09-02T07:53:16.005Z,53.33
2017-09-02T07:54:15.683Z,52.36
2017-09-02T07:55:15.667Z,55.05
2017-09-02T07:56:15.966Z,56.21
2017-09-02T07:57:15.988Z,57.92
2017-09-02T07:58:15.941Z,56.28
2017-09-02T07:59:15.928Z,56.09
2017-09-02T08:00:15.906Z,58.12
2017-09-02T08:01:15.900Z,58.37
2017-09-02T08:02:15.910Z,57.6
2017-09-02T08:03:15.876Z,57.12
2017-09-02T08:04:15.868Z,56.18
2017-09-02T08:05:15.852Z,55.89
2017-09-02T08:06:15.837Z,57.05
2017-09-02T08:07:15.829Z,56.11
2017-09-02T08:08:15.810Z,56.3
2017-09-02T08:09:15.810Z,56.3
2017-09-02T08:10:15.789Z,55.94
2017-09-02T08:11:15.780Z,54.03
2017-09-02T08:12:15.765Z,50.96
2017-09-02T08:13:15.765Z,51.09
2017-09-02T08:14:15.750Z,49.9
2017-09-02T08:15:15.726Z,50.09
2017-09-02T08:16:15.720Z,50.87
2017-09-02T08:17:15.706Z,50.96
2017-09-02T08:18:15.692Z,50.6
2017-09-02T08:19:15.680Z,49.44
2017-09-02T08:20:15.872Z,48.78
2017-09-02T08:21:15.663Z,47.55
2017-09-02T08:22:15.645Z,47.52
2017-09-02T08:23:15.641Z,49.44
2017-09-02T08:24:15.623Z,50.57
2017-09-02T08:25:15.624Z,50.09
2017-09-02T08:26:15.607Z,50.09
2017-09-02T08:27:15.590Z,49.12
2017-09-02T08:28:15.593Z,48.64
2017-09-02T08:29:15.267Z,47.02
2017-09-02T08:30:15.260Z,46.43
2017-09-02T08:31:15.553Z,47.5
2017-09-02T08:32:15.545Z,47.4
2017-09-02T08:33:15.531Z,47.42
2017-09-02T08:34:15.521Z,46.19
2017-09-02T08:35:15.509Z,45.72
2017-09-02T08:36:15.497Z,45.82
2017-09-02T08:37:15.485Z,45.45
2017-09-02T08:38:15.482Z,44.38
2017-09-02T08:39:15.466Z,44.95
2017-09-02T08:40:15.456Z,46.62
2017-09-02T08:41:15.499Z,49.39
2017-09-02T08:42:15.437Z,52.05
2017-09-02T08:43:15.429Z,52.89
2017-09-02T08:44:15.409Z,52.12
2017-09-02T08:45:15.398Z,50.62
2017-09-02T08:46:15.385Z,48.81
2017-09-02T08:47:15.370Z,47.84
2017-09-02T08:48:15.367Z,48.22
2017-09-02T08:49:15.349Z,48.61
2017-09-02T08:50:15.349Z,47.64
2017-09-02T08:51:15.322Z,47.06
2017-09-02T08:52:15.308Z,48.71
2017-09-02T08:53:15.301Z,48.52
2017-09-02T08:54:15.291Z,48.71
2017-09-02T08:55:15.275Z,49.56
2017-09-02T08:56:15.264Z,49.75
2017-09-02T08:57:15.257Z,49.29
2017-09-02T08:58:15.247Z,48.74
2017-09-02T08:59:15.229Z,47.5
2017-09-02T09:00:15.221Z,46.26
2017-09-02T09:01:15.208Z,45.48
2017-09-02T09:02:15.195Z,44.92
2017-09-02T09:03:15.184Z,45.97
2017-09-02T09:04:15.184Z,46.36
2017-09-02T09:05:15.164Z,45.89
2017-09-02T09:06:29.762Z,45.61
2017-09-02T09:07:15.146Z,45.87
2017-09-02T09:08:15.133Z,47.4
2017-09-02T09:09:15.127Z,47.38
2017-09-02T09:10:15.106Z,48.74
2017-09-02T09:11:15.103Z,48.64
2017-09-02T09:12:15.083Z,47.55
2017-09-02T09:13:15.077Z,47.55
2017-09-02T09:14:15.061Z,48.69
2017-09-02T09:15:15.352Z,49.34
2017-09-02T09:16:15.034Z,50.57
2017-09-02T09:17:14.711Z,52.29
2017-09-02T09:18:15.011Z,52.84
2017-09-02T09:19:15.001Z,53.88
2017-09-02T09:20:14.988Z,54.91
2017-09-02T09:21:14.968Z,56.04
2017-09-02T09:22:14.959Z,57.27
2017-09-02T09:23:14.944Z,59.45
2017-09-02T09:24:14.920Z,61.83
2017-09-02T09:25:15.213Z,64.05
2017-09-02T09:26:14.590Z,64.47
2017-09-02T09:27:14.883Z,61.44
2017-09-02T09:28:14.877Z,58.97
2017-09-02T09:29:14.852Z,57.23
2017-09-02T09:30:14.833Z,58.19
2017-09-02T09:31:14.815Z,58.58
2017-09-02T09:32:14.805Z,58.36
2017-09-02T09:33:14.479Z,59
2017-09-02T09:34:14.778Z,61.19
2017-09-02T09:35:14.759Z,62.32
2017-09-02T09:36:14.738Z,64.05
2017-09-02T09:37:14.721Z,63.85
2017-09-02T09:38:14.710Z,64.31
2017-09-02T09:39:14.701Z,65.46
2017-09-02T09:40:14.685Z,64.53
2017-09-02T09:41:14.658Z,60.26
2017-09-02T09:42:14.644Z,56.84
2017-09-02T09:43:14.635Z,55.78
2017-09-02T09:44:14.611Z,54.75
2017-09-02T09:45:14.657Z,53.81
2017-09-02T09:46:14.590Z,52.67
2017-09-02T09:47:14.571Z,52.97
2017-09-02T09:48:14.603Z,52.97
2017-09-02T09:49:14.545Z,53.71
2017-09-02T09:50:14.213Z,53.88
2017-09-02T09:51:14.507Z,53.95
2017-09-02T09:52:14.494Z,54.21
2017-09-02T09:53:14.479Z,56.95
2017-09-02T09:54:14.465Z,59.04
2017-09-02T09:55:14.449Z,60.77
2017-09-02T09:56:14.434Z,61.8
2017-09-02T09:57:14.414Z,62.29
2017-09-02T09:58:14.397Z,63.6
2017-09-02T09:59:14.377Z,64.37
2017-09-02T10:00:14.361Z,65.2
2017-09-02T10:01:14.040Z,66.07
2017-09-02T10:02:14.322Z,67.42
2017-09-02T10:03:14.360Z,68.38
2017-09-02T10:04:14.309Z,68.48
2017-09-02T10:05:14.278Z,68.96
2017-09-02T10:06:14.257Z,69.34
2017-09-02T10:07:14.240Z,69.34
2017-09-02T10:08:14.219Z,70.07
2017-09-02T10:09:14.202Z,70.07
2017-09-02T10:10:14.185Z,69.73
2017-09-02T10:11:14.206Z,67.93
2017-09-02T10:12:14.152Z,64.15
2017-09-02T10:13:14.134Z,61.48
2017-09-02T10:14:14.117Z,57.94
2017-09-02T10:15:14.101Z,56.91
2017-09-02T10:16:14.083Z,54.72
2017-09-02T10:17:14.074Z,54.36
2017-09-02T10:18:14.048Z,52.17
2017-09-02T10:19:14.041Z,49.68
2017-09-02T10:20:14.020Z,49.39
2017-09-02T10:21:14.003Z,48.52
2017-09-02T10:22:13.986Z,49.46
2017-09-02T10:23:13.981Z,50.31
2017-09-02T10:24:13.962Z,52.14
2017-09-02T10:25:14.001Z,53.08
2017-09-02T10:26:13.933Z,54.62
2017-09-02T10:27:13.914Z,55.66
2017-09-02T10:28:13.951Z,56.04
2017-09-02T10:29:13.885Z,56.69
2017-09-02T10:30:13.873Z,56.79
2017-09-02T10:31:13.861Z,55.63
2017-09-02T10:32:13.842Z,56.98
2017-09-02T10:33:13.516Z,58.3
2017-09-02T10:34:13.815Z,57.53
2017-09-02T10:35:13.804Z,57.82
2017-09-02T10:36:13.473Z,58.3
2017-09-02T10:37:14.404Z,57.92
2017-09-02T10:38:13.745Z,57.12
2017-09-02T10:39:13.732Z,56.05
2017-09-02T10:40:13.712Z,56.92
2017-09-02T10:41:13.693Z,58.08
2017-09-02T10:42:13.681Z,58.34
2017-09-02T10:43:13.663Z,58.44
2017-09-02T10:44:13.645Z,58.72
2017-09-02T10:45:13.627Z,58.4
2017-09-02T10:46:13.611Z,57.83
2017-09-02T10:47:13.596Z,58.79
2017-09-02T10:48:13.577Z,59.44
2017-09-02T10:49:13.297Z,60.78
2017-09-02T10:50:13.538Z,62.23
2017-09-02T10:51:13.213Z,62.68
2017-09-02T10:52:13.504Z,63.92
2017-09-02T10:53:13.489Z,64.69
2017-09-02T10:54:13.466Z,65.17
2017-09-02T10:55:13.448Z,65.94
2017-09-02T10:56:13.428Z,67.48
2017-09-02T10:57:13.418Z,68.09
2017-09-02T10:58:13.402Z,67.99
2017-09-02T10:59:13.375Z,68.09
2017-09-02T11:00:13.364Z,68.86
2017-09-02T11:01:13.353Z,68.48
2017-09-02T11:02:13.323Z,69.15
2017-09-02T11:03:13.304Z,68.48
2017-09-02T11:04:13.336Z,67.45
2017-09-02T11:05:13.268Z,67.45
2017-09-02T11:06:13.250Z,67.45
2017-09-02T11:07:13.234Z,66.2
2017-09-02T11:08:13.214Z,64.56
2017-09-02T11:09:13.189Z,62.74
2017-09-02T11:10:13.171Z,61.77
2017-09-02T11:11:13.159Z,62.45
2017-09-02T11:12:13.132Z,61.39
2017-09-02T11:13:13.126Z,59.94
2017-09-02T11:14:13.108Z,58.89
2017-09-02T11:15:12.776Z,58.98
2017-09-02T11:16:13.061Z,59.75
2017-09-02T11:17:13.049Z,59.94
2017-09-02T11:18:13.025Z,59.37
2017-09-02T11:19:13.017Z,59.66
2017-09-02T11:20:12.987Z,58.6
2017-09-02T11:21:13.022Z,58.79
2017-09-02T11:22:12.960Z,58.6
2017-09-02T11:23:12.626Z,58.89
2017-09-02T11:24:12.912Z,59.56
2017-09-02T11:25:12.893Z,59.75
2017-09-02T11:26:12.880Z,60.91
2017-09-02T11:27:12.859Z,61.87
2017-09-02T11:28:12.837Z,62.26
2017-09-02T11:29:12.518Z,63.12
2017-09-02T11:30:12.805Z,62.64
2017-09-02T11:31:12.782Z,63.22
2017-09-02T11:32:12.798Z,63.57
2017-09-02T11:33:12.748Z,63.38
2017-09-02T11:34:12.416Z,63.57
2017-09-02T11:35:12.708Z,63.86
2017-09-02T11:36:12.682Z,65.2
2017-09-02T11:37:12.671Z,65.3
2017-09-02T11:38:12.649Z,66.04
2017-09-02T11:39:12.324Z,66.81
2017-09-02T11:40:12.612Z,66.52
2017-09-02T11:41:12.647Z,65.56
2017-09-02T11:42:12.576Z,65.17
2017-09-02T11:43:12.555Z,65.08
2017-09-02T11:44:12.536Z,65.08
2017-09-02T11:45:12.517Z,64.12
2017-09-02T11:46:12.506Z,63.09
2017-09-02T11:47:12.479Z,62.9
2017-09-02T11:48:12.466Z,62.32
2017-09-02T11:49:12.129Z,62.23
2017-09-02T11:50:12.482Z,61.74
2017-09-02T11:51:12.400Z,61.26
2017-09-02T11:52:12.383Z,61.07
2017-09-02T11:53:12.367Z,61.36
2017-09-02T11:54:12.344Z,62.32
2017-09-02T11:55:12.327Z,62.99
2017-09-02T11:56:12.306Z,61.36
2017-09-02T11:57:12.290Z,60.21
2017-09-02T11:58:12.272Z,59.82
2017-09-02T11:59:12.248Z,60.39
2017-09-02T12:00:12.230Z,59.05
2017-09-02T12:01:12.214Z,58.57
2017-09-02T12:02:12.193Z,59.05
2017-09-02T12:03:12.181Z,59.82
2017-09-02T12:04:12.166Z,58.67
2017-09-02T12:05:12.139Z,58.95
2017-09-02T12:06:12.120Z,58.37
2017-09-02T12:07:11.788Z,59.02
2017-09-02T12:08:12.080Z,58.28
2017-09-02T12:09:12.067Z,57.6
2017-09-02T12:10:12.042Z,56.65
2017-09-02T12:11:12.021Z,56.93
2017-09-02T12:12:12.001Z,55.78
2017-09-02T12:13:11.982Z,55.88
2017-09-02T12:14:11.961Z,55.49
2017-09-02T12:15:11.952Z,57.03
2017-09-02T12:16:11.946Z,56.55
2017-09-02T12:17:11.902Z,56.65
2017-09-02T12:18:11.883Z,57.42
2017-09-02T12:19:11.865Z,57.9
2017-09-02T12:20:11.538Z,57.6
2017-09-02T12:21:11.831Z,57.7
2017-09-02T12:22:11.806Z,57.9
2017-09-02T12:23:11.793Z,57.8
2017-09-02T12:24:11.778Z,57.73
2017-09-02T12:25:11.749Z,57.92
2017-09-02T12:26:11.737Z,58.31
2017-09-02T12:27:11.713Z,57.92
2017-09-02T12:28:11.697Z,58.63
2017-09-02T12:29:11.678Z,58.79
2017-09-02T12:30:11.656Z,59.47
2017-09-02T12:31:11.639Z,59.4
2017-09-02T12:32:11.633Z,58.05
2017-09-02T12:33:11.600Z,58.34
2017-09-02T12:34:11.584Z,58.82
2017-09-02T12:35:11.564Z,58.7
2017-09-02T12:36:11.545Z,58.5
2017-09-02T12:37:11.527Z,58.4
2017-09-02T12:38:11.509Z,58.6
2017-09-02T12:39:11.489Z,59.08
2017-09-02T12:40:11.471Z,60.14
2017-09-02T12:41:11.449Z,59.94
2017-09-02T12:42:11.429Z,60.49
2017-09-02T12:43:11.415Z,60.69
2017-09-02T12:44:11.402Z,60.49
2017-09-02T12:45:11.374Z,60.3
2017-09-02T12:46:11.360Z,60.59
2017-09-02T12:47:11.339Z,59.72
2017-09-02T12:48:11.319Z,58.7
2017-09-02T12:49:11.299Z,58.12
2017-09-02T12:50:11.280Z,58.02
2017-09-02T12:51:11.261Z,57.64
2017-09-02T12:52:11.240Z,57.54
2017-09-02T12:53:11.225Z,57.15
2017-09-02T12:54:11.213Z,57.06
2017-09-02T12:55:11.192Z,56.58